Terminal Aerodrome Forecast
Issued by NWS

Home | Current Version | Previous Version | Text Only | Print | Product List | Glossary On
Versions: 1 2 3 4 5 6 7 8 9 10 11 12 13 14 15 16 17 18 19 20 21 22 23
000
FTUS44 KOHX 292246 AAB
TAFCKV
TAF AMD
KCKV 292246Z 2923/3018 26008KT P6SM VCTS BKN050CB
      TEMPO 2923/2924 2SM TSRA BR OVC030CB
     FM300100 23004KT P6SM VCSH BKN050
     FM300900 21004KT 5SM BR SCT060 BKN100
     FM301300 26006KT P6SM BKN040=

USA.gov is the U.S. government's official web portal to all federal, state and local government web resources and services.